Time;durP1;ratioP1;P1;durP2;ratioP2;P2;SDS_P1;SDS_P2;PMS_P1;PMS_P2;Temp;Humidity;BMP_temperature;BMP_pressure;BME280_temperature;BME280_humidity;BME280_pressure;Samples;Min_cycle;Max_cycle;Signal;HPM_P1;HPM_P2
2022/04/02 00:01:17;;;;;;;4.47;4.07;;;3.30;86.80;;;;;;5066680;28;20519;-46
2022/04/02 00:03:45;;;;;;;6.20;5.60;;;3.30;87.00;;;;;;5068271;28;21619;-46
2022/04/02 00:06:11;;;;;;;13.13;4.83;;;3.20;86.70;;;;;;5068013;28;20497;-46
2022/04/02 00:08:39;;;;;;;15.50;7.57;;;3.20;87.10;;;;;;5054653;28;20496;-46
2022/04/02 00:11:07;;;;;;;15.90;10.13;;;3.20;87.10;;;;;;5047982;28;20489;-46
2022/04/02 00:13:34;;;;;;;35.23;10.00;;;3.20;87.30;;;;;;5051089;28;20999;-46
2022/04/02 00:16:01;;;;;;;11.37;6.73;;;3.20;87.60;;;;;;5066814;28;21072;-46
2022/04/02 00:18:29;;;;;;;18.67;10.10;;;3.20;87.40;;;;;;5057828;28;20490;-46
2022/04/02 00:20:56;;;;;;;11.33;7.00;;;3.20;87.50;;;;;;5065276;28;20470;-46
2022/04/02 00:23:39;;;;;;;11.23;7.43;;;3.20;87.70;;;;;;5066130;28;20523;-46
2022/04/02 00:26:08;;;;;;;14.10;4.60;;;3.20;87.50;;;;;;5058786;28;20481;-46
2022/04/02 00:28:36;;;;;;;9.60;5.70;;;3.20;87.50;;;;;;5069520;28;20551;-46
2022/04/02 00:31:03;;;;;;;6.73;5.30;;;3.20;87.70;;;;;;5069721;28;20538;-46
2022/04/02 00:33:30;;;;;;;14.60;4.70;;;3.20;87.70;;;;;;5064715;28;20481;-47
2022/04/02 00:35:56;;;;;;;7.83;5.97;;;3.10;87.60;;;;;;5053541;28;20488;-45
2022/04/02 00:38:23;;;;;;;6.43;4.90;;;3.10;87.60;;;;;;5039096;28;21040;-46
2022/04/02 00:40:50;;;;;;;12.43;5.40;;;3.10;88.10;;;;;;5065916;28;20473;-46
2022/04/02 00:43:25;;;;;;;6.27;5.73;;;3.10;88.10;;;;;;5067400;28;21030;-45
2022/04/02 00:45:52;;;;;;;5.97;4.60;;;3.10;88.00;;;;;;5067719;28;20477;-45
2022/04/02 00:48:19;;;;;;;7.60;5.20;;;3.10;88.40;;;;;;5066019;28;20922;-46
2022/04/02 00:50:47;;;;;;;6.20;5.60;;;3.10;88.60;;;;;;5064736;28;20883;-46
2022/04/02 00:53:15;;;;;;;7.70;6.10;;;3.20;88.50;;;;;;5069047;28;20585;-45
2022/04/02 00:55:43;;;;;;;7.67;5.77;;;3.20;88.20;;;;;;5063213;28;20497;-46
2022/04/02 00:58:11;;;;;;;6.00;5.30;;;3.20;87.80;;;;;;5066216;28;20597;-47
2022/04/02 01:00:40;;;;;;;7.37;4.97;;;3.20;88.40;;;;;;5069328;28;20473;-46
2022/04/02 01:03:08;;;;;;;7.80;5.20;;;3.20;88.00;;;;;;5066151;28;20488;-46
2022/04/02 01:05:35;;;;;;;6.03;5.50;;;3.20;88.40;;;;;;5065623;28;20470;-46
2022/04/02 01:08:05;;;;;;;16.50;5.77;;;3.20;88.30;;;;;;5069976;28;21141;-46
2022/04/02 01:10:31;;;;;;;6.97;5.63;;;3.20;88.20;;;;;;5038513;28;20985;-46
2022/04/02 01:12:58;;;;;;;9.70;6.40;;;3.20;88.40;;;;;;5066329;28;20484;-46
2022/04/02 01:15:25;;;;;;;17.33;5.23;;;3.20;88.30;;;;;;5066322;28;20489;-45
2022/04/02 01:17:53;;;;;;;6.10;5.50;;;3.20;88.50;;;;;;5067026;28;20977;-45
2022/04/02 01:20:20;;;;;;;5.27;4.77;;;3.20;88.30;;;;;;5067365;28;20552;-45
2022/04/02 01:22:49;;;;;;;13.23;5.33;;;3.20;88.30;;;;;;5065618;28;20513;-45
2022/04/02 01:25:15;;;;;;;5.70;4.90;;;3.20;88.30;;;;;;5065361;28;21094;-46
2022/04/02 01:27:44;;;;;;;5.60;5.00;;;3.20;88.40;;;;;;5069268;28;20911;-47
2022/04/02 01:30:13;;;;;;;9.73;4.40;;;3.20;88.70;;;;;;5066277;28;20491;-45
2022/04/02 01:32:40;;;;;;;7.07;4.70;;;3.20;88.50;;;;;;5065870;28;20474;-46
2022/04/02 01:35:08;;;;;;;5.63;5.13;;;3.20;88.40;;;;;;5055868;28;20545;-46
2022/04/02 01:37:35;;;;;;;5.63;4.10;;;3.20;88.70;;;;;;5039706;28;20496;-46
2022/04/02 01:40:04;;;;;;;4.10;2.43;;;3.20;88.90;;;;;;5066238;28;20529;-45
2022/04/02 01:42:30;;;;;;;6.03;4.87;;;3.20;88.90;;;;;;5066045;28;20556;-46
2022/04/02 01:44:57;;;;;;;7.00;4.40;;;3.20;89.00;;;;;;5062994;28;20554;-45
2022/04/02 01:47:24;;;;;;;4.60;3.73;;;3.20;89.10;;;;;;5068332;28;20489;-46
2022/04/02 01:49:51;;;;;;;5.10;4.33;;;;;;;;;;5064427;28;20837;-45
2022/04/02 01:52:20;;;;;;;5.30;3.13;;;3.10;88.60;;;;;;5066192;28;20536;-46
2022/04/02 01:54:48;;;;;;;5.40;4.90;;;3.10;88.60;;;;;;5067292;28;20476;-47
2022/04/02 01:57:16;;;;;;;7.97;3.60;;;3.10;89.00;;;;;;5063304;28;20491;-46
2022/04/02 01:59:47;;;;;;;6.50;4.80;;;3.10;89.20;;;;;;5064915;28;20480;-46
2022/04/02 02:02:14;;;;;;;4.70;3.80;;;3.10;89.20;;;;;;5066066;28;20565;-46
2022/04/02 02:04:41;;;;;;;4.40;4.00;;;3.20;89.30;;;;;;5064166;28;20474;-49
2022/04/02 02:07:08;;;;;;;7.40;5.50;;;3.20;89.40;;;;;;5066389;28;20541;-46
2022/04/02 02:09:35;;;;;;;6.43;5.40;;;3.30;89.50;;;;;;5067289;28;20480;-46
2022/04/02 02:12:02;;;;;;;5.80;4.97;;;3.30;89.40;;;;;;5065442;28;20514;-46
2022/04/02 02:14:30;;;;;;;6.30;4.70;;;3.30;89.50;;;;;;5066548;28;20558;-46
2022/04/02 02:16:57;;;;;;;5.70;5.20;;;3.30;89.20;;;;;;5065944;28;20480;-46
2022/04/02 02:19:24;;;;;;;21.63;4.67;;;3.30;89.10;;;;;;5067073;28;20488;-46
2022/04/02 02:21:51;;;;;;;7.03;6.03;;;3.30;89.10;;;;;;5066255;28;20535;-46
2022/04/02 02:24:17;;;;;;;7.10;4.47;;;3.30;89.00;;;;;;5062671;28;20481;-46
2022/04/02 02:26:44;;;;;;;9.53;5.30;;;3.40;89.20;;;;;;5067930;28;20471;-46
2022/04/02 02:29:11;;;;;;;4.37;3.70;;;3.30;88.80;;;;;;5065480;28;20485;-46
2022/04/02 02:31:39;;;;;;;5.10;4.60;;;3.30;89.20;;;;;;5066767;28;20535;-46
2022/04/02 02:37:05;;;;;;;4.23;3.80;;;;;;;;;;5018648;28;20467;-46
2022/04/02 02:39:32;;;;;;;4.23;3.83;;;3.30;88.80;;;;;;5013035;28;20489;-47
2022/04/02 02:41:59;;;;;;;6.77;5.43;;;3.30;89.00;;;;;;5037395;28;20486;-46
2022/04/02 02:44:25;;;;;;;6.83;5.70;;;3.30;88.90;;;;;;5060130;28;20987;-46
2022/04/02 02:46:53;;;;;;;6.40;4.07;;;3.30;89.10;;;;;;5060498;28;21351;-46
2022/04/02 02:49:20;;;;;;;8.57;3.83;;;3.30;88.80;;;;;;5060963;28;20489;-46
2022/04/02 02:51:47;;;;;;;6.10;5.60;;;;;;;;;;5061769;28;20483;-48
2022/04/02 02:54:14;;;;;;;8.33;5.90;;;3.30;89.30;;;;;;5063870;28;20479;-47
2022/04/02 02:56:41;;;;;;;8.37;5.13;;;3.30;89.10;;;;;;5034902;28;20474;-46
2022/04/02 02:59:08;;;;;;;5.00;4.60;;;3.20;88.90;;;;;;5060534;28;20558;-47
2022/04/02 03:01:35;;;;;;;4.83;4.40;;;3.20;89.30;;;;;;5062100;28;21480;-48
2022/04/02 03:04:03;;;;;;;5.33;4.83;;;3.20;89.50;;;;;;5059222;28;20490;-47
2022/04/02 03:06:30;;;;;;;5.30;4.57;;;;;;;;;;5059136;28;20481;-49
2022/04/02 03:08:56;;;;;;;9.83;4.50;;;3.20;89.80;;;;;;5060620;28;20485;-47
2022/04/02 03:11:23;;;;;;;4.30;3.90;;;3.20;90.00;;;;;;5058748;28;20480;-47
2022/04/02 03:13:51;;;;;;;7.07;5.70;;;;;;;;;;5060749;28;20492;-48
2022/04/02 03:16:17;;;;;;;10.93;5.27;;;3.20;90.00;;;;;;5061429;28;20878;-47
2022/04/02 03:18:44;;;;;;;6.53;5.20;;;3.20;90.00;;;;;;5063275;28;20627;-47
2022/04/02 03:21:12;;;;;;;4.37;3.97;;;3.10;90.10;;;;;;5059351;28;20549;-46
2022/04/02 03:23:39;;;;;;;6.47;5.10;;;3.10;90.20;;;;;;5060818;28;20480;-46
2022/04/02 03:26:06;;;;;;;5.57;5.00;;;3.10;90.20;;;;;;5056099;28;20480;-46
2022/04/02 03:28:33;;;;;;;9.23;4.60;;;;;;;;;;5063243;28;20907;-47
2022/04/02 03:31:00;;;;;;;4.00;3.60;;;3.20;90.20;;;;;;5061551;28;20507;-46
2022/04/02 03:33:27;;;;;;;10.00;4.63;;;3.10;90.10;;;;;;5061354;28;20482;-46
2022/04/02 03:35:54;;;;;;;8.17;5.93;;;;;;;;;;5067913;28;20490;-47
2022/04/02 03:38:22;;;;;;;7.10;6.17;;;3.10;90.40;;;;;;5067646;28;20477;-46
2022/04/02 03:40:49;;;;;;;5.40;4.90;;;3.10;90.40;;;;;;5067643;28;20526;-47
2022/04/02 03:43:16;;;;;;;9.67;7.40;;;3.10;90.50;;;;;;5068981;28;20508;-46
2022/04/02 03:45:42;;;;;;;6.33;5.73;;;3.10;90.60;;;;;;5064218;28;20476;-46
2022/04/02 03:48:09;;;;;;;5.73;4.90;;;3.10;90.60;;;;;;5066020;28;20616;-46
2022/04/02 03:50:36;;;;;;;4.73;4.33;;;;;;;;;;5067320;28;20484;-46
2022/04/02 03:53:03;;;;;;;7.33;5.67;;;3.20;90.50;;;;;;5066627;28;20540;-46
2022/04/02 03:55:31;;;;;;;7.07;5.37;;;3.10;90.50;;;;;;5070530;28;20852;-49
2022/04/02 03:57:58;;;;;;;7.10;4.57;;;3.20;90.60;;;;;;5067141;28;20501;-46
2022/04/02 04:00:25;;;;;;;7.67;4.80;;;3.10;90.50;;;;;;5066524;28;20472;-47
2022/04/02 04:02:51;;;;;;;4.30;3.67;;;3.10;90.40;;;;;;5064049;28;20506;-47
2022/04/02 04:05:19;;;;;;;6.03;5.20;;;3.10;90.60;;;;;;5067610;28;20499;-46
2022/04/02 04:07:45;;;;;;;9.10;5.47;;;3.10;90.60;;;;;;5065703;28;20477;-46
2022/04/02 04:10:12;;;;;;;4.13;3.80;;;3.10;90.60;;;;;;5067437;28;20532;-46
2022/04/02 04:12:41;;;;;;;4.53;4.07;;;3.10;90.60;;;;;;5066735;28;20526;-46
2022/04/02 04:15:08;;;;;;;4.93;4.43;;;3.00;90.50;;;;;;5062447;28;20493;-47
2022/04/02 04:17:35;;;;;;;5.93;5.07;;;3.00;90.60;;;;;;5059480;28;21507;-46
2022/04/02 04:20:02;;;;;;;4.93;3.60;;;3.00;90.70;;;;;;5059172;28;20490;-46
2022/04/02 04:22:29;;;;;;;4.43;4.03;;;3.00;90.70;;;;;;5065199;28;20469;-46
2022/04/02 04:24:56;;;;;;;6.93;4.10;;;3.00;90.80;;;;;;5064601;28;20485;-47
2022/04/02 04:27:23;;;;;;;4.80;3.57;;;3.00;90.70;;;;;;5068113;28;21109;-47
2022/04/02 04:29:51;;;;;;;6.07;4.90;;;3.00;90.90;;;;;;5067775;28;20570;-47
2022/04/02 04:32:17;;;;;;;4.27;3.70;;;3.00;90.80;;;;;;5068567;28;20483;-47
2022/04/02 04:34:45;;;;;;;11.67;4.80;;;3.10;90.80;;;;;;5065555;28;20491;-47
2022/04/02 04:37:12;;;;;;;5.17;3.97;;;3.10;90.80;;;;;;5068377;28;20578;-47
2022/04/02 04:39:38;;;;;;;5.50;4.80;;;3.10;90.80;;;;;;5065522;28;20486;-47
2022/04/02 04:42:06;;;;;;;4.83;4.33;;;3.10;90.80;;;;;;5070243;28;20496;-47
2022/04/02 04:44:33;;;;;;;5.90;4.80;;;3.20;90.90;;;;;;5062182;28;20533;-47
2022/04/02 04:47:01;;;;;;;6.83;5.40;;;3.20;90.70;;;;;;5059800;28;21121;-46
2022/04/02 04:49:28;;;;;;;5.67;4.90;;;3.10;90.60;;;;;;5058170;28;20513;-46
2022/04/02 04:51:55;;;;;;;10.60;5.50;;;3.10;90.70;;;;;;5059987;28;20480;-46
2022/04/02 04:54:21;;;;;;;6.37;5.13;;;3.10;90.60;;;;;;5059031;28;21056;-46
2022/04/02 04:56:48;;;;;;;12.47;6.57;;;3.10;90.70;;;;;;5061693;28;20536;-46
2022/04/02 04:59:15;;;;;;;5.33;4.83;;;3.10;90.70;;;;;;5052498;28;20480;-46
2022/04/02 05:01:42;;;;;;;5.53;5.00;;;3.10;90.70;;;;;;5062759;28;20547;-47
2022/04/02 05:04:11;;;;;;;12.20;5.77;;;3.10;90.70;;;;;;5056416;28;20491;-47
2022/04/02 05:06:38;;;;;;;5.03;4.53;;;3.10;90.70;;;;;;5034394;28;20922;-46
2022/04/02 05:09:06;;;;;;;4.70;4.30;;;3.10;90.70;;;;;;5058370;28;20579;-47
2022/04/02 05:11:34;;;;;;;10.80;4.30;;;3.10;90.70;;;;;;5063925;28;20487;-47
2022/04/02 05:14:01;;;;;;;4.40;3.87;;;3.10;90.80;;;;;;5063323;28;20474;-47
2022/04/02 05:16:28;;;;;;;8.00;4.80;;;3.00;90.60;;;;;;5064222;28;20479;-47
2022/04/02 05:18:56;;;;;;;8.77;4.93;;;3.00;90.70;;;;;;5062743;28;20587;-46
2022/04/02 05:21:24;;;;;;;12.43;6.60;;;3.10;90.90;;;;;;5063307;28;20489;-46
2022/04/02 05:23:50;;;;;;;6.40;4.90;;;3.00;90.80;;;;;;5065357;28;20484;-46
2022/04/02 05:26:17;;;;;;;6.83;5.77;;;3.00;90.70;;;;;;5064373;28;20525;-46
2022/04/02 05:28:44;;;;;;;6.00;4.63;;;3.00;90.70;;;;;;5063622;28;20565;-46
2022/04/02 05:31:11;;;;;;;10.73;5.67;;;3.00;90.90;;;;;;5062967;28;20481;-47
2022/04/02 05:33:39;;;;;;;4.40;4.00;;;3.00;90.70;;;;;;5063126;28;20550;-47
2022/04/02 05:36:06;;;;;;;4.40;3.93;;;2.90;90.60;;;;;;5062574;28;20517;-46
2022/04/02 05:38:34;;;;;;;9.27;4.30;;;2.90;90.60;;;;;;5063464;28;20489;-47
2022/04/02 05:41:01;;;;;;;15.93;4.93;;;2.90;90.70;;;;;;5063058;28;20534;-48
2022/04/02 05:43:28;;;;;;;5.80;4.70;;;3.00;90.80;;;;;;5063299;28;20490;-47
2022/04/02 05:45:54;;;;;;;6.17;4.87;;;3.00;90.70;;;;;;5060884;28;20474;-47
2022/04/02 05:48:21;;;;;;;17.83;4.73;;;3.00;90.70;;;;;;5051283;28;20551;-46
2022/04/02 05:50:48;;;;;;;5.43;4.87;;;3.10;90.80;;;;;;5058036;28;20560;-46
2022/04/02 05:53:15;;;;;;;6.40;5.10;;;3.10;90.80;;;;;;5063492;28;21195;-47
2022/04/02 05:55:43;;;;;;;17.60;5.53;;;3.10;90.60;;;;;;5060270;28;20487;-47
2022/04/02 05:58:11;;;;;;;8.80;6.00;;;3.10;90.60;;;;;;5062850;28;20542;-46
2022/04/02 06:00:38;;;;;;;9.10;5.47;;;3.10;90.70;;;;;;5062585;28;20483;-47
2022/04/02 06:03:05;;;;;;;20.60;8.10;;;;;;;;;;5044601;28;20547;-47
2022/04/02 06:05:33;;;;;;;13.47;7.90;;;3.20;90.70;;;;;;5059106;28;20492;-51
2022/04/02 06:08:00;;;;;;;9.70;4.00;;;3.20;90.60;;;;;;5061792;28;20473;-47
2022/04/02 06:10:26;;;;;;;10.20;5.20;;;3.20;90.70;;;;;;5060504;28;20484;-47
2022/04/02 06:12:54;;;;;;;7.60;6.90;;;3.20;90.70;;;;;;5063248;28;20482;-47
2022/04/02 06:15:24;;;;;;;9.67;6.80;;;3.20;90.60;;;;;;5061306;28;20514;-47
2022/04/02 06:17:51;;;;;;;9.53;5.17;;;3.20;90.50;;;;;;5058367;28;20495;-47
2022/04/02 06:20:18;;;;;;;4.10;3.70;;;3.20;90.50;;;;;;5063619;28;20484;-47
2022/04/02 06:22:45;;;;;;;10.43;3.23;;;3.10;90.20;;;;;;5062018;28;20491;-47
2022/04/02 06:25:11;;;;;;;10.00;3.80;;;3.00;90.00;;;;;;5064369;28;20842;-47
2022/04/02 06:27:42;;;;;;;5.17;3.77;;;2.90;89.20;;;;;;5056297;28;20912;-47
2022/04/02 06:30:12;;;;;;;5.50;3.20;;;;;;;;;;5061849;28;20560;-47
2022/04/02 06:32:39;;;;;;;7.03;3.17;;;2.90;90.00;;;;;;5062348;28;20941;-48
2022/04/02 06:35:06;;;;;;;7.80;4.00;;;2.90;90.00;;;;;;5063082;28;20484;-47
2022/04/02 06:37:35;;;;;;;2.63;2.43;;;2.90;89.50;;;;;;5063352;28;20487;-47
2022/04/02 06:40:02;;;;;;;3.93;3.40;;;2.90;89.10;;;;;;5061798;28;20556;-46
2022/04/02 06:42:28;;;;;;;3.73;2.53;;;2.90;89.20;;;;;;5062694;28;20476;-47
2022/04/02 06:44:55;;;;;;;4.90;3.57;;;2.90;89.70;;;;;;5055820;28;20538;-46
2022/04/02 06:47:26;;;;;;;3.43;3.07;;;2.90;89.80;;;;;;5061851;28;20472;-47
2022/04/02 06:49:53;;;;;;;6.90;3.30;;;2.90;89.30;;;;;;5058604;28;20795;-47
2022/04/02 06:52:20;;;;;;;5.60;2.73;;;2.90;89.60;;;;;;5061027;28;20478;-46
2022/04/02 06:54:47;;;;;;;5.40;4.23;;;3.00;89.40;;;;;;5061529;28;20482;-47
2022/04/02 06:57:18;;;;;;;3.50;2.67;;;3.00;89.10;;;;;;5061148;28;20484;-46
2022/04/02 06:59:45;;;;;;;17.60;5.07;;;3.00;88.90;;;;;;5042003;28;20946;-47
2022/04/02 07:02:11;;;;;;;4.33;3.93;;;3.00;88.90;;;;;;5059531;28;20492;-47
2022/04/02 07:04:40;;;;;;;3.40;3.10;;;3.00;89.00;;;;;;5060404;28;20476;-47
2022/04/02 07:07:06;;;;;;;9.60;3.53;;;3.10;88.90;;;;;;5062399;28;20484;-47
2022/04/02 07:09:33;;;;;;;4.70;4.00;;;3.10;89.30;;;;;;5061926;28;20478;-45
2022/04/02 07:12:00;;;;;;;4.67;4.27;;;3.00;89.00;;;;;;5056831;28;20591;-47
2022/04/02 07:14:27;;;;;;;15.97;3.80;;;3.10;89.30;;;;;;5049671;28;20487;-47
2022/04/02 07:16:54;;;;;;;4.80;4.13;;;3.10;89.50;;;;;;5059330;28;21020;-47
2022/04/02 07:19:22;;;;;;;4.93;4.30;;;3.10;89.70;;;;;;5061241;28;20526;-46
2022/04/02 07:21:51;;;;;;;9.87;5.87;;;3.10;90.00;;;;;;5058194;28;21407;-47
2022/04/02 07:24:18;;;;;;;5.00;3.53;;;3.10;90.00;;;;;;5048451;28;20994;-46
2022/04/02 07:26:46;;;;;;;5.00;4.47;;;3.10;89.90;;;;;;5064122;28;20483;-47
2022/04/02 07:29:13;;;;;;;12.03;3.37;;;3.10;90.00;;;;;;5059935;28;20577;-46
2022/04/02 07:31:40;;;;;;;6.27;5.03;;;3.10;90.30;;;;;;5060819;28;20536;-47
2022/04/02 07:34:07;;;;;;;2.30;2.10;;;3.20;90.20;;;;;;5061438;28;20496;-47
2022/04/02 07:36:46;;;;;;;7.03;4.30;;;3.10;89.60;;;;;;5061257;28;20534;-47
2022/04/02 07:39:18;;;;;;;3.90;3.50;;;3.10;89.40;;;;;;5051069;28;21290;-48
2022/04/02 07:41:53;;;;;;;16.00;4.10;;;3.10;89.80;;;;;;5061677;28;20480;-47
2022/04/02 07:44:31;;;;;;;2.73;2.50;;;3.20;89.70;;;;;;5053844;28;20506;-47
2022/04/02 07:47:00;;;;;;;3.23;2.93;;;3.20;89.80;;;;;;5060975;28;20484;-47
2022/04/02 07:49:29;;;;;;;5.50;3.80;;;3.20;90.00;;;;;;5052064;28;21216;-47
2022/04/02 07:51:56;;;;;;;4.20;3.80;;;3.30;89.80;;;;;;5058390;28;20996;-47
2022/04/02 07:54:26;;;;;;;8.87;4.00;;;3.40;89.90;;;;;;5045792;28;20495;-47
2022/04/02 07:56:57;;;;;;;4.67;3.87;;;3.50;89.60;;;;;;5059881;28;20484;-47
2022/04/02 07:59:27;;;;;;;3.50;3.20;;;;;;;;;;5061079;28;20484;-47
2022/04/02 08:01:57;;;;;;;4.13;3.50;;;3.40;89.30;;;;;;5059058;28;20858;-47
2022/04/02 08:04:26;;;;;;;4.03;2.27;;;3.40;89.00;;;;;;5057592;28;20990;-47
2022/04/02 08:06:54;;;;;;;4.63;4.23;;;3.50;90.00;;;;;;5055734;28;20475;-47
2022/04/02 08:09:21;;;;;;;4.07;3.33;;;3.40;89.60;;;;;;5060906;28;20481;-48
2022/04/02 08:11:49;;;;;;;3.80;3.10;;;3.50;89.90;;;;;;5059225;28;20481;-47
2022/04/02 08:14:18;;;;;;;7.17;4.33;;;3.50;89.50;;;;;;5059959;28;20492;-47
2022/04/02 08:16:45;;;;;;;8.13;4.70;;;3.60;90.00;;;;;;5061053;28;20537;-48
2022/04/02 08:19:14;;;;;;;3.20;2.80;;;3.60;89.60;;;;;;5060736;28;20492;-47
2022/04/02 08:21:41;;;;;;;8.23;3.77;;;3.60;89.00;;;;;;5049449;28;20477;-45
2022/04/02 08:24:08;;;;;;;2.50;2.00;;;3.60;89.00;;;;;;5061104;28;20480;-44
2022/04/02 08:26:56;;;;;;;7.60;4.63;;;3.60;89.30;;;;;;5063755;28;20477;-46
2022/04/02 08:29:34;;;;;;;3.53;2.97;;;3.70;89.80;;;;;;5039338;28;20478;-45
2022/04/02 08:32:17;;;;;;;2.87;2.27;;;3.70;89.20;;;;;;5044282;28;20481;-45
2022/04/02 08:35:04;;;;;;;4.23;3.83;;;3.70;89.50;;;;;;5036074;28;20481;-47
2022/04/02 08:37:47;;;;;;;8.97;3.70;;;3.60;88.90;;;;;;5043661;28;21064;-45
2022/04/02 08:40:37;;;;;;;6.50;4.33;;;3.70;89.20;;;;;;5041333;28;21074;-46
2022/04/02 08:43:44;;;;;;;4.60;2.23;;;3.60;88.10;;;;;;5043083;28;20475;-44
2022/04/02 08:46:32;;;;;;;5.60;5.00;;;3.70;89.20;;;;;;5061575;28;20481;-45
2022/04/02 08:49:06;;;;;;;10.93;5.00;;;3.80;89.80;;;;;;5063841;28;20484;-45
2022/04/02 08:51:42;;;;;;;3.70;2.07;;;3.80;89.50;;;;;;5063471;28;21034;-45
2022/04/02 08:54:23;;;;;;;5.50;4.20;;;3.80;88.30;;;;;;5062561;28;20474;-45
2022/04/02 08:56:56;;;;;;;3.40;2.80;;;3.80;88.20;;;;;;5053251;28;20482;-45
2022/04/02 08:59:35;;;;;;;5.23;3.90;;;3.70;88.10;;;;;;5064257;28;20986;-46
2022/04/02 09:02:35;;;;;;;3.50;3.07;;;3.70;87.20;;;;;;5063361;28;21182;-45
2022/04/02 09:05:21;;;;;;;6.57;3.80;;;3.60;87.70;;;;;;5058182;28;20479;-45
2022/04/02 09:08:26;;;;;;;22.43;3.80;;;3.50;86.90;;;;;;5052814;28;20479;-46
2022/04/02 09:11:21;;;;;;;3.30;2.60;;;3.40;87.20;;;;;;5060495;28;20491;-45
2022/04/02 09:14:19;;;;;;;3.60;3.30;;;3.50;88.50;;;;;;5049143;28;20481;-46
2022/04/02 09:17:02;;;;;;;6.73;5.10;;;3.50;88.60;;;;;;5059427;28;20474;-46
2022/04/02 09:19:46;;;;;;;14.37;4.50;;;3.70;89.10;;;;;;5069273;28;20492;-46
2022/04/02 09:22:30;;;;;;;3.93;3.17;;;3.70;88.50;;;;;;5064274;28;20543;-45
2022/04/02 09:25:45;;;;;;;35.07;21.43;;;3.80;89.20;;;;;;5063747;28;20472;-46
2022/04/02 09:28:34;;;;;;;5.03;4.53;;;3.90;88.90;;;;;;5061282;28;20762;-45
2022/04/02 09:31:41;;;;;;;15.20;6.33;;;3.90;88.20;;;;;;5060525;28;20479;-46
2022/04/02 09:34:47;;;;;;;26.00;11.07;;;3.90;88.60;;;;;;5062333;28;20812;-45
2022/04/02 09:37:30;;;;;;;20.77;10.60;;;3.90;88.10;;;;;;5047152;28;20476;-46
2022/04/02 09:40:04;;;;;;;7.77;5.50;;;3.90;88.70;;;;;;5061607;28;20558;-46
2022/04/02 09:42:41;;;;;;;11.00;4.10;;;3.80;87.10;;;;;;5060213;28;20506;-47
2022/04/02 09:45:10;;;;;;;2.77;2.57;;;3.80;87.50;;;;;;5060212;28;20969;-46
2022/04/02 09:48:02;;;;;;;6.50;3.77;;;3.70;88.10;;;;;;5063443;28;20491;-46
2022/04/02 09:50:30;;;;;;;4.30;3.87;;;3.70;89.10;;;;;;5062197;28;20858;-46
2022/04/02 09:53:00;;;;;;;27.97;5.47;;;3.80;88.10;;;;;;5062214;28;20489;-46
2022/04/02 09:55:29;;;;;;;10.83;4.07;;;3.80;87.90;;;;;;5062078;28;20890;-46
2022/04/02 09:58:32;;;;;;;4.97;4.27;;;3.80;87.40;;;;;;5064773;28;21303;-46
2022/04/02 10:01:03;;;;;;;4.87;4.10;;;3.80;87.60;;;;;;5061578;28;20586;-46
2022/04/02 10:03:34;;;;;;;17.53;4.10;;;3.90;88.20;;;;;;5062275;28;20485;-47
2022/04/02 10:06:16;;;;;;;6.63;3.60;;;4.00;88.20;;;;;;5061935;28;20573;-46
2022/04/02 10:09:03;;;;;;;5.00;4.03;;;4.00;87.40;;;;;;5061450;28;20524;-46
2022/04/02 10:11:32;;;;;;;4.83;2.80;;;4.10;86.60;;;;;;5048524;28;20546;-47
2022/04/02 10:14:00;;;;;;;5.20;4.70;;;4.20;87.10;;;;;;5049548;28;20488;-46
2022/04/02 10:16:28;;;;;;;3.63;3.33;;;4.20;86.50;;;;;;5061292;28;21000;-46
2022/04/02 10:18:57;;;;;;;6.03;2.90;;;4.20;85.60;;;;;;5061555;28;20682;-46
2022/04/02 10:21:24;;;;;;;11.33;4.20;;;4.20;85.80;;;;;;5062677;28;20875;-47
2022/04/02 10:23:54;;;;;;;4.67;3.73;;;4.20;86.50;;;;;;5048076;28;20486;-46
2022/04/02 10:26:22;;;;;;;5.10;3.93;;;4.20;85.80;;;;;;5061797;28;20530;-47
2022/04/02 10:28:55;;;;;;;9.17;5.53;;;4.30;86.80;;;;;;5066433;28;21124;-50
2022/04/02 10:31:40;;;;;;;7.53;3.80;;;4.40;86.30;;;;;;5062685;28;20475;-47
2022/04/02 10:34:12;;;;;;;4.97;3.83;;;4.40;85.50;;;;;;5060718;28;20518;-47
2022/04/02 10:36:44;;;;;;;4.97;3.43;;;4.40;85.30;;;;;;5065261;28;21216;-47
2022/04/02 10:39:15;;;;;;;5.50;4.73;;;4.40;84.90;;;;;;5061778;28;20475;-46
2022/04/02 10:41:44;;;;;;;8.80;4.57;;;4.30;85.00;;;;;;5062276;28;20480;-47
2022/04/02 10:44:20;;;;;;;6.70;4.00;;;4.30;85.10;;;;;;5057000;28;20486;-47
2022/04/02 10:46:53;;;;;;;3.73;3.30;;;4.30;85.20;;;;;;5032369;28;20469;-47
2022/04/02 10:49:25;;;;;;;4.13;3.70;;;4.30;84.20;;;;;;5056183;28;20464;-50
2022/04/02 10:51:56;;;;;;;11.33;4.20;;;4.30;85.70;;;;;;5049244;28;20475;-47
2022/04/02 10:54:29;;;;;;;5.50;4.20;;;4.50;85.80;;;;;;5058744;28;20490;-47
2022/04/02 10:56:57;;;;;;;3.40;3.10;;;4.60;85.60;;;;;;5057004;28;20480;-47
2022/04/02 10:59:26;;;;;;;3.90;3.30;;;4.80;86.20;;;;;;5058807;28;20484;-47
2022/04/02 11:01:58;;;;;;;5.77;4.20;;;5.00;85.00;;;;;;5046611;28;20500;-47
2022/04/02 11:04:30;;;;;;;10.43;3.70;;;5.10;84.10;;;;;;5043797;28;20540;-47
2022/04/02 11:06:58;;;;;;;6.70;5.43;;;5.00;83.90;;;;;;5050839;28;20970;-47
2022/04/02 11:09:36;;;;;;;5.97;3.87;;;5.00;83.80;;;;;;5054023;28;20594;-48
2022/04/02 11:12:07;;;;;;;6.27;4.27;;;5.10;83.90;;;;;;5053049;28;20487;-47
2022/04/02 11:14:39;;;;;;;10.60;5.90;;;5.00;84.30;;;;;;5052373;28;20491;-47
2022/04/02 11:17:06;;;;;;;10.43;4.70;;;5.00;82.90;;;;;;5060912;28;20511;-47
2022/04/02 11:19:56;;;;;;;4.17;3.30;;;5.00;83.80;;;;;;5066854;28;20473;-47
2022/04/02 11:22:44;;;;;;;11.70;3.90;;;5.10;83.90;;;;;;5066766;28;20478;-47
2022/04/02 11:25:18;;;;;;;6.50;3.67;;;5.10;83.70;;;;;;5060043;28;20873;-47
2022/04/02 11:27:49;;;;;;;8.70;4.47;;;5.10;82.90;;;;;;5054218;28;20706;-47
2022/04/02 11:30:18;;;;;;;4.97;3.40;;;5.10;82.50;;;;;;5066324;28;20483;-47
2022/04/02 11:32:48;;;;;;;28.33;6.10;;;5.20;83.90;;;;;;5053421;28;20498;-47
2022/04/02 11:35:16;;;;;;;4.27;2.50;;;5.10;82.10;;;;;;5060038;28;20493;-46
2022/04/02 11:38:00;;;;;;;4.70;4.10;;;5.00;83.30;;;;;;5066281;28;21382;-46
2022/04/02 11:40:30;;;;;;;8.13;3.30;;;4.90;82.00;;;;;;5053989;28;20566;-46
2022/04/02 11:43:01;;;;;;;5.10;4.37;;;4.90;81.00;;;;;;5054896;28;20581;-47
2022/04/02 11:45:29;;;;;;;19.07;4.10;;;4.80;81.30;;;;;;5065342;28;20486;-47
2022/04/02 11:48:08;;;;;;;4.07;3.67;;;4.80;82.30;;;;;;5062376;28;20543;-47
2022/04/02 11:50:38;;;;;;;4.97;4.03;;;4.90;83.80;;;;;;5063192;28;20510;-46
2022/04/02 11:53:05;;;;;;;8.27;3.40;;;4.90;84.40;;;;;;5059934;28;20496;-46
2022/04/02 11:55:36;;;;;;;5.60;4.03;;;5.00;84.40;;;;;;5059654;28;20481;-47
2022/04/02 11:58:06;;;;;;;10.90;3.63;;;5.00;83.70;;;;;;5063002;28;21328;-46
2022/04/02 12:00:36;;;;;;;6.63;3.47;;;4.90;82.40;;;;;;5060291;28;20493;-47
2022/04/02 12:03:05;;;;;;;5.13;4.37;;;4.80;82.40;;;;;;5059933;28;20484;-47
2022/04/02 12:05:37;;;;;;;6.20;4.60;;;4.70;82.40;;;;;;5060912;28;20486;-47
2022/04/02 12:08:04;;;;;;;5.97;4.13;;;4.70;82.50;;;;;;5062008;28;20810;-46
2022/04/02 12:10:36;;;;;;;7.40;5.33;;;4.70;82.20;;;;;;5059460;28;20570;-47
2022/04/02 12:13:08;;;;;;;5.50;4.90;;;4.70;82.40;;;;;;5053457;28;20473;-46
2022/04/02 12:15:35;;;;;;;5.40;4.40;;;4.80;82.90;;;;;;5065387;28;20488;-46
2022/04/02 12:18:04;;;;;;;10.20;4.70;;;4.70;82.90;;;;;;5065228;28;20519;-47
2022/04/02 12:20:33;;;;;;;4.47;3.47;;;4.60;82.80;;;;;;5062730;28;20481;-47
2022/04/02 12:23:07;;;;;;;3.63;2.60;;;4.50;82.70;;;;;;5065655;28;20845;-47
2022/04/02 12:25:36;;;;;;;6.00;3.93;;;4.60;83.80;;;;;;5065171;28;20534;-47
2022/04/02 12:28:12;;;;;;;4.30;3.90;;;4.70;85.30;;;;;;5068208;28;20485;-46
2022/04/02 12:30:41;;;;;;;12.33;4.87;;;4.80;85.10;;;;;;5066753;28;21127;-46
2022/04/02 12:33:11;;;;;;;2.00;1.67;;;4.90;85.50;;;;;;5068451;28;20887;-46
2022/04/02 12:35:38;;;;;;;9.43;4.73;;;4.90;83.60;;;;;;5066936;28;21108;-47
2022/04/02 12:38:08;;;;;;;4.23;3.10;;;4.80;83.80;;;;;;5063637;28;20572;-47
2022/04/02 12:40:41;;;;;;;3.93;3.33;;;4.80;83.80;;;;;;5068357;28;20480;-46
2022/04/02 12:43:10;;;;;;;14.00;5.13;;;4.80;85.40;;;;;;5068671;28;20632;-47
2022/04/02 12:45:38;;;;;;;6.93;4.70;;;4.80;85.60;;;;;;5065745;28;20487;-47
2022/04/02 12:48:07;;;;;;;5.73;4.20;;;4.80;85.30;;;;;;5057524;28;20835;-47
2022/04/02 12:50:36;;;;;;;11.70;4.73;;;4.80;85.30;;;;;;5067011;28;20533;-47
2022/04/02 12:53:03;;;;;;;4.60;3.77;;;4.80;83.80;;;;;;5061899;28;20480;-46
2022/04/02 12:55:32;;;;;;;4.60;4.20;;;4.80;84.20;;;;;;5067087;28;20485;-50
2022/04/02 12:58:05;;;;;;;6.13;3.47;;;4.80;85.00;;;;;;5068098;28;21077;-51
2022/04/02 13:00:34;;;;;;;4.53;3.43;;;4.80;85.20;;;;;;5067154;28;20479;-47
2022/04/02 13:03:03;;;;;;;8.37;6.30;;;4.80;86.40;;;;;;5067625;28;20471;-47
2022/04/02 13:05:45;;;;;;;12.80;7.73;;;4.80;86.70;;;;;;5066103;28;20893;-50
2022/04/02 13:08:26;;;;;;;8.80;6.17;;;4.90;86.00;;;;;;5056560;28;20597;-46
2022/04/02 13:10:55;;;;;;;10.47;6.93;;;4.80;86.00;;;;;;5061700;28;21332;-46
2022/04/02 13:13:40;;;;;;;10.90;8.90;;;5.00;87.10;;;;;;5058000;28;20473;-46
2022/04/02 13:16:10;;;;;;;11.60;7.60;;;5.00;87.50;;;;;;5050644;28;20478;-47
2022/04/02 13:21:24;;;;;;;9.90;7.63;;;5.10;86.80;;;;;;5062542;28;20770;-46